sensor_id;sensor_type;location;lat;lon;timestamp;P1;durP1;ratioP1;P2;durP2;ratioP2
74344;SDS011;62776;50.518;6.732;2023-02-25T00:02:25;17.77;;;9.15;;
74344;SDS011;62776;50.518;6.732;2023-02-25T00:05:17;19.00;;;8.82;;
74344;SDS011;62776;50.518;6.732;2023-02-25T00:08:10;20.70;;;9.65;;
74344;SDS011;62776;50.518;6.732;2023-02-25T00:11:03;18.70;;;10.48;;
74344;SDS011;62776;50.518;6.732;2023-02-25T00:13:51;18.88;;;11.10;;
74344;SDS011;62776;50.518;6.732;2023-02-25T00:16:40;28.35;;;11.05;;
74344;SDS011;62776;50.518;6.732;2023-02-25T00:19:26;19.02;;;11.20;;
74344;SDS011;62776;50.518;6.732;2023-02-25T00:22:13;18.65;;;10.70;;
74344;SDS011;62776;50.518;6.732;2023-02-25T00:25:01;19.17;;;11.88;;
74344;SDS011;62776;50.518;6.732;2023-02-25T00:27:54;20.58;;;11.85;;
74344;SDS011;62776;50.518;6.732;2023-02-25T00:30:40;23.77;;;13.27;;
74344;SDS011;62776;50.518;6.732;2023-02-25T00:33:27;20.75;;;14.27;;
74344;SDS011;62776;50.518;6.732;2023-02-25T00:36:16;26.23;;;13.40;;
74344;SDS011;62776;50.518;6.732;2023-02-25T00:39:04;27.40;;;14.45;;
74344;SDS011;62776;50.518;6.732;2023-02-25T00:41:51;15.02;;;11.63;;
74344;SDS011;62776;50.518;6.732;2023-02-25T00:44:36;19.33;;;12.70;;
74344;SDS011;62776;50.518;6.732;2023-02-25T00:47:23;22.73;;;13.20;;
74344;SDS011;62776;50.518;6.732;2023-02-25T00:50:10;18.88;;;12.90;;
74344;SDS011;62776;50.518;6.732;2023-02-25T00:52:58;21.05;;;12.73;;
74344;SDS011;62776;50.518;6.732;2023-02-25T00:55:44;17.13;;;11.38;;
74344;SDS011;62776;50.518;6.732;2023-02-25T00:58:30;19.45;;;12.48;;
74344;SDS011;62776;50.518;6.732;2023-02-25T01:01:25;16.50;;;10.60;;
74344;SDS011;62776;50.518;6.732;2023-02-25T01:04:17;19.13;;;11.10;;
74344;SDS011;62776;50.518;6.732;2023-02-25T01:07:12;19.90;;;11.35;;
74344;SDS011;62776;50.518;6.732;2023-02-25T01:09:59;15.77;;;9.82;;
74344;SDS011;62776;50.518;6.732;2023-02-25T01:12:45;20.05;;;10.13;;
74344;SDS011;62776;50.518;6.732;2023-02-25T01:15:32;14.85;;;9.82;;
74344;SDS011;62776;50.518;6.732;2023-02-25T01:18:21;15.50;;;8.98;;
74344;SDS011;62776;50.518;6.732;2023-02-25T01:21:13;15.05;;;8.73;;
74344;SDS011;62776;50.518;6.732;2023-02-25T01:24:06;11.13;;;7.70;;
74344;SDS011;62776;50.518;6.732;2023-02-25T01:26:58;15.10;;;8.13;;
74344;SDS011;62776;50.518;6.732;2023-02-25T01:29:56;11.15;;;7.18;;
74344;SDS011;62776;50.518;6.732;2023-02-25T01:32:43;15.50;;;9.68;;
74344;SDS011;62776;50.518;6.732;2023-02-25T01:35:31;15.05;;;7.57;;
74344;SDS011;62776;50.518;6.732;2023-02-25T01:38:20;17.08;;;9.38;;
74344;SDS011;62776;50.518;6.732;2023-02-25T01:41:09;16.13;;;8.98;;
74344;SDS011;62776;50.518;6.732;2023-02-25T01:46:52;14.93;;;8.63;;
74344;SDS011;62776;50.518;6.732;2023-02-25T01:49:40;19.85;;;10.30;;
74344;SDS011;62776;50.518;6.732;2023-02-25T01:52:30;14.68;;;9.30;;
74344;SDS011;62776;50.518;6.732;2023-02-25T01:55:17;15.05;;;8.50;;
74344;SDS011;62776;50.518;6.732;2023-02-25T01:58:04;19.75;;;9.93;;
74344;SDS011;62776;50.518;6.732;2023-02-25T02:00:54;17.77;;;7.50;;
74344;SDS011;62776;50.518;6.732;2023-02-25T02:03:42;13.18;;;7.70;;
74344;SDS011;62776;50.518;6.732;2023-02-25T02:06:42;15.93;;;9.10;;
74344;SDS011;62776;50.518;6.732;2023-02-25T02:09:30;14.85;;;7.07;;
74344;SDS011;62776;50.518;6.732;2023-02-25T02:12:17;14.55;;;8.07;;
74344;SDS011;62776;50.518;6.732;2023-02-25T02:15:05;15.55;;;6.95;;
74344;SDS011;62776;50.518;6.732;2023-02-25T02:17:57;14.40;;;6.68;;
74344;SDS011;62776;50.518;6.732;2023-02-25T02:24:17;11.23;;;6.18;;
74344;SDS011;62776;50.518;6.732;2023-02-25T02:27:13;10.65;;;5.35;;
74344;SDS011;62776;50.518;6.732;2023-02-25T02:42:17;21.20;;;7.38;;
74344;SDS011;62776;50.518;6.732;2023-02-25T02:45:48;19.42;;;8.52;;
74344;SDS011;62776;50.518;6.732;2023-02-25T02:52:09;12.57;;;6.57;;
74344;SDS011;62776;50.518;6.732;2023-02-25T02:55:12;14.48;;;9.18;;
74344;SDS011;62776;50.518;6.732;2023-02-25T02:58:16;16.35;;;8.38;;
74344;SDS011;62776;50.518;6.732;2023-02-25T03:01:19;21.13;;;9.52;;
74344;SDS011;62776;50.518;6.732;2023-02-25T03:04:29;14.35;;;9.15;;
74344;SDS011;62776;50.518;6.732;2023-02-25T03:07:20;12.93;;;7.60;;
74344;SDS011;62776;50.518;6.732;2023-02-25T03:10:07;18.42;;;9.27;;
74344;SDS011;62776;50.518;6.732;2023-02-25T03:12:58;13.02;;;8.98;;
74344;SDS011;62776;50.518;6.732;2023-02-25T03:15:47;16.48;;;7.93;;
74344;SDS011;62776;50.518;6.732;2023-02-25T03:18:46;15.55;;;9.48;;
74344;SDS011;62776;50.518;6.732;2023-02-25T03:21:45;17.17;;;8.40;;
74344;SDS011;62776;50.518;6.732;2023-02-25T03:24:40;17.92;;;8.63;;
74344;SDS011;62776;50.518;6.732;2023-02-25T03:27:49;15.27;;;8.18;;
74344;SDS011;62776;50.518;6.732;2023-02-25T03:30:40;14.48;;;8.00;;
74344;SDS011;62776;50.518;6.732;2023-02-25T03:34:19;17.30;;;7.65;;
74344;SDS011;62776;50.518;6.732;2023-02-25T03:37:00;18.38;;;8.52;;
74344;SDS011;62776;50.518;6.732;2023-02-25T03:39:52;12.57;;;7.78;;
74344;SDS011;62776;50.518;6.732;2023-02-25T03:42:48;13.55;;;6.85;;
74344;SDS011;62776;50.518;6.732;2023-02-25T03:45:46;11.23;;;6.72;;
74344;SDS011;62776;50.518;6.732;2023-02-25T03:48:33;14.20;;;7.97;;
74344;SDS011;62776;50.518;6.732;2023-02-25T03:51:26;14.77;;;7.30;;
74344;SDS011;62776;50.518;6.732;2023-02-25T03:54:17;13.65;;;7.32;;
74344;SDS011;62776;50.518;6.732;2023-02-25T03:57:06;12.60;;;6.80;;
74344;SDS011;62776;50.518;6.732;2023-02-25T03:59:53;12.75;;;6.70;;
74344;SDS011;62776;50.518;6.732;2023-02-25T04:02:40;9.32;;;5.82;;
74344;SDS011;62776;50.518;6.732;2023-02-25T04:05:29;12.40;;;5.72;;
74344;SDS011;62776;50.518;6.732;2023-02-25T04:08:19;10.50;;;5.70;;
74344;SDS011;62776;50.518;6.732;2023-02-25T04:11:06;13.63;;;5.38;;
74344;SDS011;62776;50.518;6.732;2023-02-25T04:13:55;15.82;;;6.10;;
74344;SDS011;62776;50.518;6.732;2023-02-25T04:16:44;16.02;;;5.32;;
74344;SDS011;62776;50.518;6.732;2023-02-25T04:19:32;14.68;;;5.57;;
74344;SDS011;62776;50.518;6.732;2023-02-25T04:22:18;9.93;;;4.68;;
74344;SDS011;62776;50.518;6.732;2023-02-25T04:25:11;12.55;;;5.28;;
74344;SDS011;62776;50.518;6.732;2023-02-25T04:27:58;14.18;;;5.63;;
74344;SDS011;62776;50.518;6.732;2023-02-25T04:30:45;15.25;;;5.75;;
74344;SDS011;62776;50.518;6.732;2023-02-25T04:33:37;9.63;;;4.82;;
74344;SDS011;62776;50.518;6.732;2023-02-25T04:36:24;14.30;;;4.80;;
74344;SDS011;62776;50.518;6.732;2023-02-25T04:39:21;16.75;;;5.68;;
74344;SDS011;62776;50.518;6.732;2023-02-25T04:42:08;13.50;;;5.68;;
74344;SDS011;62776;50.518;6.732;2023-02-25T04:44:54;12.40;;;5.97;;
74344;SDS011;62776;50.518;6.732;2023-02-25T04:47:41;13.38;;;5.82;;
74344;SDS011;62776;50.518;6.732;2023-02-25T04:50:28;13.15;;;6.10;;
74344;SDS011;62776;50.518;6.732;2023-02-25T04:53:14;14.30;;;6.40;;
74344;SDS011;62776;50.518;6.732;2023-02-25T04:56:04;15.07;;;6.03;;
74344;SDS011;62776;50.518;6.732;2023-02-25T04:58:56;11.55;;;5.32;;
74344;SDS011;62776;50.518;6.732;2023-02-25T05:01:46;15.70;;;5.88;;
74344;SDS011;62776;50.518;6.732;2023-02-25T05:04:34;14.32;;;5.95;;
74344;SDS011;62776;50.518;6.732;2023-02-25T05:07:22;15.80;;;5.60;;
74344;SDS011;62776;50.518;6.732;2023-02-25T05:10:09;9.68;;;5.32;;
74344;SDS011;62776;50.518;6.732;2023-02-25T05:12:59;14.55;;;6.40;;
74344;SDS011;62776;50.518;6.732;2023-02-25T05:15:46;15.73;;;5.88;;
74344;SDS011;62776;50.518;6.732;2023-02-25T05:18:36;13.43;;;6.47;;
74344;SDS011;62776;50.518;6.732;2023-02-25T05:21:25;14.57;;;6.80;;
74344;SDS011;62776;50.518;6.732;2023-02-25T05:24:18;18.33;;;7.13;;
74344;SDS011;62776;50.518;6.732;2023-02-25T05:27:07;18.40;;;7.60;;
74344;SDS011;62776;50.518;6.732;2023-02-25T05:30:01;15.05;;;7.20;;
74344;SDS011;62776;50.518;6.732;2023-02-25T05:32:47;16.42;;;6.63;;
74344;SDS011;62776;50.518;6.732;2023-02-25T05:35:34;19.13;;;7.03;;
74344;SDS011;62776;50.518;6.732;2023-02-25T05:41:15;14.38;;;6.72;;
74344;SDS011;62776;50.518;6.732;2023-02-25T05:44:03;16.75;;;7.68;;
74344;SDS011;62776;50.518;6.732;2023-02-25T05:46:49;15.77;;;6.28;;
74344;SDS011;62776;50.518;6.732;2023-02-25T05:49:36;18.85;;;7.13;;
74344;SDS011;62776;50.518;6.732;2023-02-25T05:52:22;19.05;;;7.78;;
74344;SDS011;62776;50.518;6.732;2023-02-25T05:55:08;14.38;;;6.70;;
74344;SDS011;62776;50.518;6.732;2023-02-25T05:57:56;23.88;;;8.07;;
74344;SDS011;62776;50.518;6.732;2023-02-25T06:00:42;15.93;;;7.13;;
74344;SDS011;62776;50.518;6.732;2023-02-25T06:03:29;23.10;;;7.85;;
74344;SDS011;62776;50.518;6.732;2023-02-25T06:06:19;17.55;;;7.15;;
74344;SDS011;62776;50.518;6.732;2023-02-25T06:09:08;16.55;;;8.02;;
74344;SDS011;62776;50.518;6.732;2023-02-25T06:12:02;16.23;;;7.07;;
74344;SDS011;62776;50.518;6.732;2023-02-25T06:14:52;22.05;;;8.40;;
74344;SDS011;62776;50.518;6.732;2023-02-25T06:17:39;12.65;;;7.18;;
74344;SDS011;62776;50.518;6.732;2023-02-25T06:20:25;17.08;;;6.57;;
74344;SDS011;62776;50.518;6.732;2023-02-25T06:23:12;16.88;;;6.97;;
74344;SDS011;62776;50.518;6.732;2023-02-25T06:25:58;18.15;;;7.07;;
74344;SDS011;62776;50.518;6.732;2023-02-25T06:28:48;20.75;;;6.88;;
74344;SDS011;62776;50.518;6.732;2023-02-25T06:31:36;15.80;;;6.35;;
74344;SDS011;62776;50.518;6.732;2023-02-25T06:34:22;17.77;;;6.70;;
74344;SDS011;62776;50.518;6.732;2023-02-25T06:37:10;17.55;;;7.50;;
74344;SDS011;62776;50.518;6.732;2023-02-25T06:39:57;18.27;;;6.72;;
74344;SDS011;62776;50.518;6.732;2023-02-25T06:42:43;14.70;;;6.95;;
74344;SDS011;62776;50.518;6.732;2023-02-25T06:45:30;17.52;;;7.55;;
74344;SDS011;62776;50.518;6.732;2023-02-25T06:48:17;13.15;;;5.82;;
74344;SDS011;62776;50.518;6.732;2023-02-25T06:51:06;14.05;;;5.30;;
74344;SDS011;62776;50.518;6.732;2023-02-25T06:53:53;14.48;;;5.97;;
74344;SDS011;62776;50.518;6.732;2023-02-25T06:56:40;14.48;;;5.15;;
74344;SDS011;62776;50.518;6.732;2023-02-25T06:59:26;17.00;;;5.97;;
74344;SDS011;62776;50.518;6.732;2023-02-25T07:02:15;11.85;;;5.20;;
74344;SDS011;62776;50.518;6.732;2023-02-25T07:05:03;11.70;;;4.85;;
74344;SDS011;62776;50.518;6.732;2023-02-25T07:07:50;12.88;;;5.43;;
74344;SDS011;62776;50.518;6.732;2023-02-25T07:10:39;12.73;;;5.65;;
74344;SDS011;62776;50.518;6.732;2023-02-25T07:13:27;12.05;;;4.68;;
74344;SDS011;62776;50.518;6.732;2023-02-25T07:16:15;14.88;;;6.20;;
74344;SDS011;62776;50.518;6.732;2023-02-25T07:19:04;13.15;;;5.13;;
74344;SDS011;62776;50.518;6.732;2023-02-25T07:21:50;12.43;;;4.40;;
74344;SDS011;62776;50.518;6.732;2023-02-25T07:24:43;13.50;;;6.57;;
74344;SDS011;62776;50.518;6.732;2023-02-25T07:27:30;11.50;;;4.60;;
74344;SDS011;62776;50.518;6.732;2023-02-25T07:30:16;9.82;;;5.03;;
74344;SDS011;62776;50.518;6.732;2023-02-25T07:33:14;12.48;;;5.25;;
74344;SDS011;62776;50.518;6.732;2023-02-25T07:36:02;17.30;;;6.25;;
74344;SDS011;62776;50.518;6.732;2023-02-25T07:38:50;11.10;;;4.95;;
74344;SDS011;62776;50.518;6.732;2023-02-25T07:41:40;13.27;;;5.93;;
74344;SDS011;62776;50.518;6.732;2023-02-25T07:44:26;12.73;;;5.10;;
74344;SDS011;62776;50.518;6.732;2023-02-25T07:47:13;15.70;;;5.82;;
74344;SDS011;62776;50.518;6.732;2023-02-25T07:50:01;12.82;;;6.25;;
74344;SDS011;62776;50.518;6.732;2023-02-25T07:52:48;12.20;;;5.18;;
74344;SDS011;62776;50.518;6.732;2023-02-25T07:55:36;16.35;;;5.95;;
74344;SDS011;62776;50.518;6.732;2023-02-25T07:58:26;13.48;;;4.93;;
74344;SDS011;62776;50.518;6.732;2023-02-25T08:01:23;12.40;;;5.43;;
74344;SDS011;62776;50.518;6.732;2023-02-25T08:04:15;13.48;;;6.40;;
74344;SDS011;62776;50.518;6.732;2023-02-25T08:07:01;13.38;;;6.03;;
74344;SDS011;62776;50.518;6.732;2023-02-25T08:09:49;18.55;;;6.07;;
74344;SDS011;62776;50.518;6.732;2023-02-25T08:12:35;14.23;;;6.00;;
74344;SDS011;62776;50.518;6.732;2023-02-25T08:15:22;17.60;;;6.95;;
74344;SDS011;62776;50.518;6.732;2023-02-25T08:18:10;19.25;;;6.07;;
74344;SDS011;62776;50.518;6.732;2023-02-25T08:20:58;13.77;;;5.55;;
74344;SDS011;62776;50.518;6.732;2023-02-25T08:23:53;14.57;;;6.55;;
74344;SDS011;62776;50.518;6.732;2023-02-25T08:26:39;12.50;;;4.30;;
74344;SDS011;62776;50.518;6.732;2023-02-25T08:29:27;11.25;;;4.47;;
74344;SDS011;62776;50.518;6.732;2023-02-25T08:32:14;14.27;;;5.57;;
74344;SDS011;62776;50.518;6.732;2023-02-25T08:35:03;13.40;;;5.00;;
74344;SDS011;62776;50.518;6.732;2023-02-25T08:37:53;13.80;;;5.32;;
74344;SDS011;62776;50.518;6.732;2023-02-25T08:40:39;14.98;;;5.70;;
74344;SDS011;62776;50.518;6.732;2023-02-25T08:43:26;17.52;;;5.90;;
74344;SDS011;62776;50.518;6.732;2023-02-25T08:46:13;14.20;;;5.68;;
74344;SDS011;62776;50.518;6.732;2023-02-25T08:48:59;18.23;;;5.38;;
74344;SDS011;62776;50.518;6.732;2023-02-25T08:51:48;11.13;;;4.28;;
74344;SDS011;62776;50.518;6.732;2023-02-25T08:54:39;10.75;;;4.20;;
74344;SDS011;62776;50.518;6.732;2023-02-25T08:57:28;13.10;;;4.90;;
74344;SDS011;62776;50.518;6.732;2023-02-25T09:00:15;12.50;;;4.95;;
74344;SDS011;62776;50.518;6.732;2023-02-25T09:03:04;12.77;;;4.88;;
74344;SDS011;62776;50.518;6.732;2023-02-25T09:05:52;12.48;;;4.82;;
74344;SDS011;62776;50.518;6.732;2023-02-25T09:08:40;13.48;;;5.40;;
74344;SDS011;62776;50.518;6.732;2023-02-25T09:11:27;12.38;;;4.43;;
74344;SDS011;62776;50.518;6.732;2023-02-25T09:14:15;11.30;;;4.30;;
74344;SDS011;62776;50.518;6.732;2023-02-25T09:17:05;13.38;;;4.75;;
74344;SDS011;62776;50.518;6.732;2023-02-25T09:19:53;14.75;;;4.60;;
74344;SDS011;62776;50.518;6.732;2023-02-25T09:22:39;11.52;;;4.22;;
74344;SDS011;62776;50.518;6.732;2023-02-25T09:25:36;12.90;;;5.10;;
74344;SDS011;62776;50.518;6.732;2023-02-25T09:28:23;13.60;;;4.40;;
74344;SDS011;62776;50.518;6.732;2023-02-25T09:31:11;13.07;;;4.60;;
74344;SDS011;62776;50.518;6.732;2023-02-25T09:34:02;13.40;;;4.82;;
74344;SDS011;62776;50.518;6.732;2023-02-25T09:36:50;11.98;;;4.03;;
74344;SDS011;62776;50.518;6.732;2023-02-25T09:39:38;9.35;;;4.65;;
74344;SDS011;62776;50.518;6.732;2023-02-25T09:42:30;15.45;;;5.20;;
74344;SDS011;62776;50.518;6.732;2023-02-25T09:45:34;13.60;;;4.72;;
74344;SDS011;62776;50.518;6.732;2023-02-25T09:48:26;12.85;;;4.07;;
74344;SDS011;62776;50.518;6.732;2023-02-25T09:51:22;11.52;;;4.10;;
74344;SDS011;62776;50.518;6.732;2023-02-25T09:54:33;10.85;;;4.13;;
74344;SDS011;62776;50.518;6.732;2023-02-25T09:57:30;11.00;;;4.30;;
74344;SDS011;62776;50.518;6.732;2023-02-25T10:00:24;13.80;;;4.75;;
74344;SDS011;62776;50.518;6.732;2023-02-25T10:06:48;17.02;;;5.35;;
74344;SDS011;62776;50.518;6.732;2023-02-25T10:09:50;9.95;;;4.35;;
74344;SDS011;62776;50.518;6.732;2023-02-25T10:12:48;15.13;;;5.28;;
74344;SDS011;62776;50.518;6.732;2023-02-25T10:15:48;9.10;;;3.65;;
74344;SDS011;62776;50.518;6.732;2023-02-25T10:22:06;11.80;;;4.35;;
74344;SDS011;62776;50.518;6.732;2023-02-25T10:25:20;14.50;;;5.13;;
74344;SDS011;62776;50.518;6.732;2023-02-25T10:28:16;10.00;;;4.72;;
74344;SDS011;62776;50.518;6.732;2023-02-25T10:31:07;13.88;;;4.88;;
74344;SDS011;62776;50.518;6.732;2023-02-25T10:34:19;16.42;;;4.70;;
74344;SDS011;62776;50.518;6.732;2023-02-25T10:37:16;10.65;;;3.85;;
74344;SDS011;62776;50.518;6.732;2023-02-25T10:40:19;9.80;;;4.67;;
74344;SDS011;62776;50.518;6.732;2023-02-25T10:43:17;8.63;;;3.63;;
74344;SDS011;62776;50.518;6.732;2023-02-25T10:46:09;12.75;;;4.45;;
74344;SDS011;62776;50.518;6.732;2023-02-25T10:49:23;12.90;;;4.35;;
74344;SDS011;62776;50.518;6.732;2023-02-25T10:52:16;11.10;;;4.30;;
74344;SDS011;62776;50.518;6.732;2023-02-25T10:55:13;14.25;;;4.97;;
74344;SDS011;62776;50.518;6.732;2023-02-25T10:58:25;12.05;;;4.13;;
74344;SDS011;62776;50.518;6.732;2023-02-25T11:01:19;10.52;;;4.15;;
74344;SDS011;62776;50.518;6.732;2023-02-25T11:04:10;10.13;;;4.05;;
74344;SDS011;62776;50.518;6.732;2023-02-25T11:07:21;13.32;;;5.97;;
74344;SDS011;62776;50.518;6.732;2023-02-25T11:10:17;9.35;;;3.85;;
74344;SDS011;62776;50.518;6.732;2023-02-25T11:13:14;10.20;;;3.78;;
74344;SDS011;62776;50.518;6.732;2023-02-25T11:16:14;7.68;;;3.33;;
74344;SDS011;62776;50.518;6.732;2023-02-25T11:22:21;9.80;;;4.17;;
74344;SDS011;62776;50.518;6.732;2023-02-25T11:25:36;11.60;;;3.70;;
74344;SDS011;62776;50.518;6.732;2023-02-25T11:28:39;10.65;;;4.70;;
74344;SDS011;62776;50.518;6.732;2023-02-25T11:31:36;7.05;;;2.97;;
74344;SDS011;62776;50.518;6.732;2023-02-25T11:37:21;6.07;;;2.53;;
74344;SDS011;62776;50.518;6.732;2023-02-25T11:43:38;5.47;;;2.70;;
74344;SDS011;62776;50.518;6.732;2023-02-25T11:46:33;9.73;;;3.13;;
74344;SDS011;62776;50.518;6.732;2023-02-25T11:52:45;9.77;;;3.95;;
74344;SDS011;62776;50.518;6.732;2023-02-25T11:56:05;6.50;;;3.22;;
74344;SDS011;62776;50.518;6.732;2023-02-25T12:02:24;6.50;;;2.75;;
74344;SDS011;62776;50.518;6.732;2023-02-25T12:11:52;6.18;;;5.15;;
74344;SDS011;62776;50.518;6.732;2023-02-25T12:15:15;10.85;;;5.60;;
74344;SDS011;62776;50.518;6.732;2023-02-25T12:31:42;8.05;;;6.00;;
74344;SDS011;62776;50.518;6.732;2023-02-25T12:43:52;4.93;;;3.78;;
74344;SDS011;62776;50.518;6.732;2023-02-25T12:47:04;6.32;;;3.70;;
74344;SDS011;62776;50.518;6.732;2023-02-25T12:53:27;5.07;;;4.57;;
74344;SDS011;62776;50.518;6.732;2023-02-25T13:05:55;8.57;;;5.82;;
74344;SDS011;62776;50.518;6.732;2023-02-25T13:09:20;8.57;;;6.00;;
74344;SDS011;62776;50.518;6.732;2023-02-25T13:25:06;10.32;;;6.57;;
74344;SDS011;62776;50.518;6.732;2023-02-25T13:31:38;8.00;;;6.72;;
74344;SDS011;62776;50.518;6.732;2023-02-25T13:34:51;9.02;;;7.30;;
74344;SDS011;62776;50.518;6.732;2023-02-25T13:41:25;9.10;;;8.13;;
74344;SDS011;62776;50.518;6.732;2023-02-25T13:44:39;12.02;;;7.35;;
74344;SDS011;62776;50.518;6.732;2023-02-25T13:50:45;9.50;;;7.30;;
74344;SDS011;62776;50.518;6.732;2023-02-25T13:57:46;8.35;;;7.32;;
74344;SDS011;62776;50.518;6.732;2023-02-25T14:04:28;10.77;;;7.32;;
74344;SDS011;62776;50.518;6.732;2023-02-25T14:07:32;7.68;;;6.80;;
74344;SDS011;62776;50.518;6.732;2023-02-25T14:10:52;8.48;;;5.32;;
74344;SDS011;62776;50.518;6.732;2023-02-25T14:20:25;5.72;;;4.38;;
74344;SDS011;62776;50.518;6.732;2023-02-25T14:24:07;5.25;;;4.00;;
74344;SDS011;62776;50.518;6.732;2023-02-25T14:26:55;5.55;;;3.45;;
74344;SDS011;62776;50.518;6.732;2023-02-25T14:29:58;5.72;;;3.05;;
74344;SDS011;62776;50.518;6.732;2023-02-25T14:39:33;11.82;;;4.32;;
74344;SDS011;62776;50.518;6.732;2023-02-25T14:45:41;8.63;;;4.57;;
74344;SDS011;62776;50.518;6.732;2023-02-25T15:04:51;4.50;;;3.20;;
74344;SDS011;62776;50.518;6.732;2023-02-25T15:20:33;9.00;;;4.25;;
74344;SDS011;62776;50.518;6.732;2023-02-25T15:24:10;6.90;;;4.07;;
74344;SDS011;62776;50.518;6.732;2023-02-25T15:26:44;7.25;;;3.30;;
74344;SDS011;62776;50.518;6.732;2023-02-25T15:35:22;4.80;;;3.00;;
74344;SDS011;62776;50.518;6.732;2023-02-25T15:47:10;6.78;;;2.58;;
74344;SDS011;62776;50.518;6.732;2023-02-25T15:50:02;6.93;;;3.08;;
74344;SDS011;62776;50.518;6.732;2023-02-25T15:52:57;6.65;;;2.65;;
74344;SDS011;62776;50.518;6.732;2023-02-25T15:58:57;7.30;;;2.97;;
74344;SDS011;62776;50.518;6.732;2023-02-25T16:01:52;6.72;;;2.60;;
74344;SDS011;62776;50.518;6.732;2023-02-25T16:04:39;5.22;;;2.00;;
74344;SDS011;62776;50.518;6.732;2023-02-25T16:07:41;8.32;;;3.25;;
74344;SDS011;62776;50.518;6.732;2023-02-25T16:10:40;6.85;;;3.00;;
74344;SDS011;62776;50.518;6.732;2023-02-25T16:13:35;7.80;;;2.40;;
74344;SDS011;62776;50.518;6.732;2023-02-25T16:16:26;4.75;;;2.00;;
74344;SDS011;62776;50.518;6.732;2023-02-25T16:19:20;3.45;;;2.28;;
74344;SDS011;62776;50.518;6.732;2023-02-25T16:22:18;6.68;;;2.45;;
74344;SDS011;62776;50.518;6.732;2023-02-25T16:25:17;8.23;;;2.78;;
74344;SDS011;62776;50.518;6.732;2023-02-25T16:28:49;4.32;;;2.20;;
74344;SDS011;62776;50.518;6.732;2023-02-25T16:41:23;2.78;;;2.05;;
74344;SDS011;62776;50.518;6.732;2023-02-25T16:44:19;5.70;;;2.10;;
74344;SDS011;62776;50.518;6.732;2023-02-25T16:47:27;5.70;;;2.20;;
74344;SDS011;62776;50.518;6.732;2023-02-25T16:50:18;4.55;;;2.00;;
74344;SDS011;62776;50.518;6.732;2023-02-25T16:53:09;3.33;;;1.70;;
74344;SDS011;62776;50.518;6.732;2023-02-25T16:56:22;2.70;;;1.92;;
74344;SDS011;62776;50.518;6.732;2023-02-25T16:59:18;5.50;;;2.25;;
74344;SDS011;62776;50.518;6.732;2023-02-25T17:05:16;7.30;;;2.08;;
74344;SDS011;62776;50.518;6.732;2023-02-25T17:08:22;3.67;;;2.10;;
74344;SDS011;62776;50.518;6.732;2023-02-25T17:11:10;4.00;;;1.75;;
74344;SDS011;62776;50.518;6.732;2023-02-25T17:14:01;4.57;;;2.17;;
74344;SDS011;62776;50.518;6.732;2023-02-25T17:16:48;2.35;;;1.60;;
74344;SDS011;62776;50.518;6.732;2023-02-25T17:19:38;3.40;;;1.88;;
74344;SDS011;62776;50.518;6.732;2023-02-25T17:22:24;2.85;;;2.03;;
74344;SDS011;62776;50.518;6.732;2023-02-25T17:25:08;3.93;;;1.97;;
74344;SDS011;62776;50.518;6.732;2023-02-25T17:28:04;3.20;;;2.08;;
74344;SDS011;62776;50.518;6.732;2023-02-25T17:30:52;2.78;;;1.60;;
74344;SDS011;62776;50.518;6.732;2023-02-25T17:34:00;3.50;;;1.73;;
74344;SDS011;62776;50.518;6.732;2023-02-25T17:37:02;2.65;;;1.70;;
74344;SDS011;62776;50.518;6.732;2023-02-25T17:40:23;1.98;;;1.52;;
74344;SDS011;62776;50.518;6.732;2023-02-25T17:49:22;2.42;;;1.73;;
74344;SDS011;62776;50.518;6.732;2023-02-25T17:52:23;2.13;;;1.40;;
74344;SDS011;62776;50.518;6.732;2023-02-25T17:55:25;1.98;;;1.23;;
74344;SDS011;62776;50.518;6.732;2023-02-25T17:58:20;2.08;;;1.40;;
74344;SDS011;62776;50.518;6.732;2023-02-25T18:01:16;3.55;;;1.90;;
74344;SDS011;62776;50.518;6.732;2023-02-25T18:04:07;3.45;;;1.75;;
74344;SDS011;62776;50.518;6.732;2023-02-25T18:13:21;3.00;;;1.65;;
74344;SDS011;62776;50.518;6.732;2023-02-25T18:16:39;1.73;;;1.40;;
74344;SDS011;62776;50.518;6.732;2023-02-25T18:22:36;4.15;;;2.30;;
74344;SDS011;62776;50.518;6.732;2023-02-25T18:25:38;5.10;;;2.03;;
74344;SDS011;62776;50.518;6.732;2023-02-25T18:28:36;5.07;;;2.50;;
74344;SDS011;62776;50.518;6.732;2023-02-25T18:31:23;4.20;;;2.85;;
74344;SDS011;62776;50.518;6.732;2023-02-25T18:34:16;2.90;;;1.70;;
74344;SDS011;62776;50.518;6.732;2023-02-25T18:37:16;5.05;;;2.15;;
74344;SDS011;62776;50.518;6.732;2023-02-25T18:40:05;4.20;;;2.10;;
74344;SDS011;62776;50.518;6.732;2023-02-25T18:43:06;3.58;;;1.55;;
74344;SDS011;62776;50.518;6.732;2023-02-25T18:45:58;3.15;;;1.80;;
74344;SDS011;62776;50.518;6.732;2023-02-25T18:48:45;3.47;;;2.08;;
74344;SDS011;62776;50.518;6.732;2023-02-25T18:51:32;3.38;;;2.20;;
74344;SDS011;62776;50.518;6.732;2023-02-25T18:54:19;3.55;;;2.05;;
74344;SDS011;62776;50.518;6.732;2023-02-25T18:57:11;4.07;;;2.25;;
74344;SDS011;62776;50.518;6.732;2023-02-25T19:00:10;2.97;;;1.90;;
74344;SDS011;62776;50.518;6.732;2023-02-25T19:03:01;3.63;;;1.70;;
74344;SDS011;62776;50.518;6.732;2023-02-25T19:05:50;3.10;;;1.85;;
74344;SDS011;62776;50.518;6.732;2023-02-25T19:08:37;4.20;;;1.80;;
74344;SDS011;62776;50.518;6.732;2023-02-25T19:11:34;2.67;;;1.70;;
74344;SDS011;62776;50.518;6.732;2023-02-25T19:14:21;8.13;;;2.47;;
74344;SDS011;62776;50.518;6.732;2023-02-25T19:17:17;4.07;;;1.85;;
74344;SDS011;62776;50.518;6.732;2023-02-25T19:20:04;5.32;;;2.22;;
74344;SDS011;62776;50.518;6.732;2023-02-25T19:23:00;4.13;;;2.13;;
74344;SDS011;62776;50.518;6.732;2023-02-25T19:25:58;4.78;;;2.30;;
74344;SDS011;62776;50.518;6.732;2023-02-25T19:28:46;3.85;;;2.53;;
74344;SDS011;62776;50.518;6.732;2023-02-25T19:31:38;3.67;;;2.08;;
74344;SDS011;62776;50.518;6.732;2023-02-25T19:34:25;4.05;;;2.67;;
74344;SDS011;62776;50.518;6.732;2023-02-25T19:37:12;4.53;;;2.05;;
74344;SDS011;62776;50.518;6.732;2023-02-25T19:40:02;6.72;;;2.30;;
74344;SDS011;62776;50.518;6.732;2023-02-25T19:42:50;5.88;;;2.20;;
74344;SDS011;62776;50.518;6.732;2023-02-25T19:45:37;5.32;;;2.03;;
74344;SDS011;62776;50.518;6.732;2023-02-25T19:48:29;4.30;;;2.05;;
74344;SDS011;62776;50.518;6.732;2023-02-25T19:51:15;4.70;;;2.17;;
74344;SDS011;62776;50.518;6.732;2023-02-25T19:54:07;3.47;;;1.90;;
74344;SDS011;62776;50.518;6.732;2023-02-25T19:56:54;4.57;;;1.90;;
74344;SDS011;62776;50.518;6.732;2023-02-25T19:59:40;3.92;;;1.83;;
74344;SDS011;62776;50.518;6.732;2023-02-25T20:02:35;5.55;;;1.90;;
74344;SDS011;62776;50.518;6.732;2023-02-25T20:05:23;3.88;;;2.10;;
74344;SDS011;62776;50.518;6.732;2023-02-25T20:08:10;3.80;;;2.03;;
74344;SDS011;62776;50.518;6.732;2023-02-25T20:10:57;3.67;;;2.30;;
74344;SDS011;62776;50.518;6.732;2023-02-25T20:13:45;3.35;;;2.10;;
74344;SDS011;62776;50.518;6.732;2023-02-25T20:16:33;2.50;;;2.10;;
74344;SDS011;62776;50.518;6.732;2023-02-25T20:19:19;6.38;;;2.45;;
74344;SDS011;62776;50.518;6.732;2023-02-25T20:22:05;5.68;;;2.33;;
74344;SDS011;62776;50.518;6.732;2023-02-25T20:24:53;3.40;;;2.20;;
74344;SDS011;62776;50.518;6.732;2023-02-25T20:27:39;4.18;;;2.25;;
74344;SDS011;62776;50.518;6.732;2023-02-25T20:30:34;6.00;;;2.38;;
74344;SDS011;62776;50.518;6.732;2023-02-25T20:33:21;3.53;;;2.50;;
74344;SDS011;62776;50.518;6.732;2023-02-25T20:36:17;3.30;;;2.05;;
74344;SDS011;62776;50.518;6.732;2023-02-25T20:42:11;9.98;;;2.42;;
74344;SDS011;62776;50.518;6.732;2023-02-25T20:45:03;4.88;;;2.72;;
74344;SDS011;62776;50.518;6.732;2023-02-25T20:47:50;5.25;;;2.65;;